Home > Products > Valid Products > TAF

000
FTUS45 KPSR 222329
TAFBLH
TAF
KBLH 222329Z 2300/2324 23014G22KT P6SM BKN070 BKN200
     FM230400 22009KT P6SM SCT080 SCT150
     FM231200 VRB03KT P6SM FEW100 SCT200
     FM231800 19010KT P6SM FEW090 SCT250=



000
FTUS45 KPSR 222329
TAFIWA
TAFIWA
TAF
KIWA 222329Z 2300/2324 26014G22KT P6SM SCT070 SCT250
     FM230300 27008KT P6SM FEW090 SCT250
     FM230900 13005KT P6SM FEW100 SCT150
     FM232000 27008KT P6SM SCT090 SCT250
      AMD LTD TO CLD VIS AND WIND 2303/2313=



000
FTUS45 KPSR 222329
TAFPHX
TAF
KPHX 222329Z 2300/2324 25012G22KT P6SM SCT080 SCT250
     FM230300 27008KT P6SM FEW090 SCT250
     FM231100 12005KT P6SM FEW100 SCT150
     FM232100 24009KT P6SM FEW090 SCT200=



000
FTUS45 KPSR 222329
TAFIWA
TAF
KIWA 222329Z 2300/2324 26014G22KT P6SM SCT070 SCT250
     FM230300 27008KT P6SM FEW090 SCT250
     FM230900 13005KT P6SM FEW100 SCT150
     FM232000 27008KT P6SM SCT090 SCT250
      AMD LTD TO CLD VIS AND WIND 2303/2313=



000
FTUS45 KPSR 222329
TAFIWA
TAF
KIWA 222329Z 2300/2324 26014G22KT P6SM SCT070 SCT250
     FM230300 27008KT P6SM FEW090 SCT250
     FM230900 13005KT P6SM FEW100 SCT150
     FM232000 27008KT P6SM SCT090 SCT250
      AMD LTD TO CLD VIS AND WIND 2303/2313=



000
FTUS45 KPSR 222329
TAFIWA
TAFIWA
TAF
KIWA 222329Z 2300/2324 26014G22KT P6SM SCT070 SCT250
     FM230300 27008KT P6SM FEW090 SCT250
     FM230900 13005KT P6SM FEW100 SCT150
     FM232000 27008KT P6SM SCT090 SCT250
      AMD LTD TO CLD VIS AND WIND 2303/2313=



000
FTUS45 KPSR 222329
TAFIWA
TAF
KIWA 222329Z 2300/2324 26014G22KT P6SM SCT070 SCT250
     FM230300 27008KT P6SM FEW090 SCT250
     FM230900 13005KT P6SM FEW100 SCT150
     FM232000 27008KT P6SM SCT090 SCT250
      AMD LTD TO CLD VIS AND WIND 2303/2313=



000
FTUS45 KPSR 222329
TAFIWA
TAF
KIWA 222329Z 2300/2324 26014G22KT P6SM SCT070 SCT250
     FM230300 27008KT P6SM FEW090 SCT250
     FM230900 13005KT P6SM FEW100 SCT150
     FM232000 27008KT P6SM SCT090 SCT250
      AMD LTD TO CLD VIS AND WIND 2303/2313=



000
FTUS45 KPSR 222329
TAFIPL
TAF
KIPL 222329Z 2300/2324 26018G28KT P6SM FEW080 FEW250
     FM230500 27014KT P6SM FEW100 FEW250
     FM231200 26008KT P6SM SCT250=



000
FTUS45 KPSR 222329
TAFBLH
TAF
KBLH 222329Z 2300/2324 23014G22KT P6SM BKN070 BKN200
     FM230400 22009KT P6SM SCT080 SCT150
     FM231200 VRB03KT P6SM FEW100 SCT200
     FM231800 19010KT P6SM FEW090 SCT250=



000
FTUS45 KPSR 222329
TAFIPL
TAF
KIPL 222329Z 2300/2324 26018G28KT P6SM FEW080 FEW250
     FM230500 27014KT P6SM FEW100 FEW250
     FM231200 26008KT P6SM SCT250=



000
FTUS45 KPSR 222329
TAFPHX
TAF
KPHX 222329Z 2300/2324 25012G22KT P6SM SCT080 SCT250
     FM230300 27008KT P6SM FEW090 SCT250
     FM231100 12005KT P6SM FEW100 SCT150
     FM232100 24009KT P6SM FEW090 SCT200=



000
FTUS45 KPSR 222110 AAB
TAFPHX
TAF AMD
KPHX 222110Z 2221/2318 24012G22KT P6SM SCT080 SCT250
     FM230300 27008KT P6SM SCT250
     FM231000 12005KT P6SM FEW100 SCT150=



000
FTUS45 KPSR 221902 AAA
TAFPHX
TAF AMD
KPHX 221902Z 2219/2318 22011G19KT P6SM SCT080 SCT250
     FM230300 27008KT P6SM SCT250
     FM231000 12005KT P6SM FEW100 SCT150=



000
FTUS45 KPSR 221902 AAA
TAFPHX
TAF AMD
KPHX 221902Z 2219/2318 22011G19KT P6SM SCT080 SCT250
     FM230300 27008KT P6SM SCT250
     FM231000 12005KT P6SM FEW100 SCT150=



000
FTUS45 KPSR 221720
TAFBLH
TAF
KBLH 221720Z 2218/2318 24010G18KT P6SM BKN070
     FM230300 22009KT P6SM FEW070
     FM231200 VRB03KT P6SM SKC=



000
FTUS45 KPSR 221720
TAFIWA
TAF
KIWA 221720Z 2218/2318 24010G19KT P6SM SCT070 SCT250
     FM230300 27007KT P6SM SCT250
     FM230900 13005KT P6SM FEW100 SCT150=



000
FTUS45 KPSR 221720
TAFIPL
TAF
KIPL 221720Z 2218/2318 26016G27KT P6SM FEW070
     FM230400 27012KT P6SM SKC=



000
FTUS45 KPSR 221720
TAFPHX
TAF
KPHX 221720Z 2218/2318 19008KT P6SM FEW070 SCT250
     FM222000 23011G19KT P6SM SCT070
     FM230300 27008KT P6SM SCT250
     FM231000 12005KT P6SM FEW100 SCT150=



000
FTUS45 KPSR 221720
TAFIWA
TAFIWA
TAF
KIWA 221720Z 2218/2318 24010G19KT P6SM SCT070 SCT250
     FM230300 27007KT P6SM SCT250
     FM230900 13005KT P6SM FEW100 SCT150=



000
FTUS45 KPSR 221720
TAFIWA
TAF
KIWA 221720Z 2218/2318 24010G19KT P6SM SCT070 SCT250
     FM230300 27007KT P6SM SCT250
     FM230900 13005KT P6SM FEW100 SCT150=



000
FTUS45 KPSR 221720
TAFIPL
TAF
KIPL 221720Z 2218/2318 26016G27KT P6SM FEW070
     FM230400 27012KT P6SM SKC=



000
FTUS45 KPSR 221720
TAFIWA
TAF
KIWA 221720Z 2218/2318 24010G19KT P6SM SCT070 SCT250
     FM230300 27007KT P6SM SCT250
     FM230900 13005KT P6SM FEW100 SCT150=



000
FTUS45 KPSR 221720
TAFIWA
TAFIWA
TAF
KIWA 221720Z 2218/2318 24010G19KT P6SM SCT070 SCT250
     FM230300 27007KT P6SM SCT250
     FM230900 13005KT P6SM FEW100 SCT150=



000
FTUS45 KPSR 221720
TAFIWA
TAF
KIWA 221720Z 2218/2318 24010G19KT P6SM SCT070 SCT250
     FM230300 27007KT P6SM SCT250
     FM230900 13005KT P6SM FEW100 SCT150=



000
FTUS45 KPSR 221720
TAFPHX
TAF
KPHX 221720Z 2218/2318 19008KT P6SM FEW070 SCT250
     FM222000 23011G19KT P6SM SCT070
     FM230300 27008KT P6SM SCT250
     FM231000 12005KT P6SM FEW100 SCT150=



000
FTUS45 KPSR 221720
TAFBLH
TAF
KBLH 221720Z 2218/2318 24010G18KT P6SM BKN070
     FM230300 22009KT P6SM FEW070
     FM231200 VRB03KT P6SM SKC=



000
FTUS45 KPSR 221606 AAA
TAFBLH
TAF AMD
KBLH 221606Z 2216/2312 23014KT P6SM FEW060 SCT200
     FM222000 22016G22KT P6SM SCT070 SCT200
     FM230300 22008KT P6SM FEW070=



000
FTUS45 KPSR 221606 AAA
TAFBLH
TAF AMD
KBLH 221606Z 2216/2312 23014KT P6SM FEW060 SCT200
     FM222000 22016G22KT P6SM SCT070 SCT200
     FM230300 22008KT P6SM FEW070=



000
FTUS45 KPSR 221449 AAA
TAFPHX
TAF AMD
KPHX 221449Z 2215/2312 13007KT P6SM FEW150 BKN180
     FM221700 19008KT P6SM FEW060 BKN200
     FM222000 23010G19KT P6SM SCT070 SCT250
     FM230300 27008KT P6SM SCT250
     FM231000 11005KT P6SM SKC=



000
FTUS45 KPSR 221130
TAFBLH
TAF
KBLH 221130Z 2212/2312 22007KT P6SM FEW060 BKN200
     FM221500 21014KT P6SM FEW060 BKN200
     FM222000 22016G22KT P6SM SCT070 SCT200
     FM230300 22008KT P6SM FEW070=



000
FTUS45 KPSR 221130
TAFIPL
TAF
KIPL 221130Z 2212/2312 27020G30KT P6SM FEW250
     FM230300 27012KT P6SM SKC=



000
FTUS45 KPSR 221130
TAFIWA
TAF
KIWA 221130Z 2212/2312 11007KT P6SM BKN200
     FM221600 17008KT P6SM FEW060 BKN200
     FM221900 24012G20KT P6SM FEW070 SCT200
     FM230300 27007KT P6SM FEW070 SCT200
     FM230800 12005KT P6SM SKC
      AMD LTD TO CLD VIS AND WIND TIL 221300=



000
FTUS45 KPSR 221130
TAFPHX
TAF
KPHX 221130Z 2212/2312 12006KT P6SM BKN200
     FM221600 17008KT P6SM FEW060 BKN200
     FM221900 24012G20KT P6SM FEW070 SCT200
     FM230300 27008KT P6SM FEW070 SCT200
     FM230900 11005KT P6SM SKC=



000
FTUS45 KPSR 221130
TAFIWA
TAFIWA
TAF
KIWA 221130Z 2212/2312 11007KT P6SM BKN200
     FM221600 17008KT P6SM FEW060 BKN200
     FM221900 24012G20KT P6SM FEW070 SCT200
     FM230300 27007KT P6SM FEW070 SCT200
     FM230800 12005KT P6SM SKC
      AMD LTD TO CLD VIS AND WIND TIL 221300=



000
FTUS45 KPSR 221130
TAFIWA
TAF
KIWA 221130Z 2212/2312 11007KT P6SM BKN200
     FM221600 17008KT P6SM FEW060 BKN200
     FM221900 24012G20KT P6SM FEW070 SCT200
     FM230300 27007KT P6SM FEW070 SCT200
     FM230800 12005KT P6SM SKC
      AMD LTD TO CLD VIS AND WIND TIL 221300=



000
FTUS45 KPSR 221130
TAFIPL
TAF
KIPL 221130Z 2212/2312 27020G30KT P6SM FEW250
     FM230300 27012KT P6SM SKC=



000
FTUS45 KPSR 221130
TAFPHX
TAF
KPHX 221130Z 2212/2312 12006KT P6SM BKN200
     FM221600 17008KT P6SM FEW060 BKN200
     FM221900 24012G20KT P6SM FEW070 SCT200
     FM230300 27008KT P6SM FEW070 SCT200
     FM230900 11005KT P6SM SKC=



000
FTUS45 KPSR 221130
TAFBLH
TAF
KBLH 221130Z 2212/2312 22007KT P6SM FEW060 BKN200
     FM221500 21014KT P6SM FEW060 BKN200
     FM222000 22016G22KT P6SM SCT070 SCT200
     FM230300 22008KT P6SM FEW070=



000
FTUS45 KPSR 221130
TAFIWA
TAF
KIWA 221130Z 2212/2312 11007KT P6SM BKN200
     FM221600 17008KT P6SM FEW060 BKN200
     FM221900 24012G20KT P6SM FEW070 SCT200
     FM230300 27007KT P6SM FEW070 SCT200
     FM230800 12005KT P6SM SKC
      AMD LTD TO CLD VIS AND WIND TIL 221300=



000
FTUS45 KPSR 221130
TAFIWA
TAFIWA
TAF
KIWA 221130Z 2212/2312 11007KT P6SM BKN200
     FM221600 17008KT P6SM FEW060 BKN200
     FM221900 24012G20KT P6SM FEW070 SCT200
     FM230300 27007KT P6SM FEW070 SCT200
     FM230800 12005KT P6SM SKC
      AMD LTD TO CLD VIS AND WIND TIL 221300=



000
FTUS45 KPSR 220814 AAA
TAFPHX
TAF AMD
KPHX 220814Z 2208/2306 14005KT P6SM BKN200
     FM221700 21011KT P6SM SCT050 BKN200
     FM222100 24012G20KT P6SM BKN060 BKN200
     FM230300 27010KT P6SM SCT080 SCT200=



000
FTUS45 KPSR 220520
TAFIPL
TAF
KIPL 220520Z 2206/2306 26022G32KT P6SM FEW250
     FM220800 27018KT P6SM FEW080 SCT250
     FM221800 28020G30KT P6SM SCT080 SCT120 BKN250=



000
FTUS45 KPSR 220520
TAFIWA
TAF
KIWA 220520Z 2206/2306 22008KT P6SM FEW100
     FM220700 15008KT P6SM FEW070 SCT200
     FM221600 19010KT P6SM SCT060 BKN200
     FM222000 25014G22KT P6SM BKN060 BKN200
     FM230300 27010KT P6SM SCT070 SCT200
      AMD LTD TO CLD VIS AND WIND TIL 221300=



000
FTUS45 KPSR 220520
TAFPHX
TAF
KPHX 220520Z 2206/2306 24009KT P6SM FEW100
     FM220900 14008KT P6SM FEW070 BKN200
     FM221700 21011KT P6SM SCT050 BKN200
     FM222100 24012G20KT P6SM BKN060 BKN200
     FM230300 27010KT P6SM SCT080 SCT200=



000
FTUS45 KPSR 220520
TAFIWA
TAF
KIWA 220520Z 2206/2306 22008KT P6SM FEW100
     FM220700 15008KT P6SM FEW070 SCT200
     FM221600 19010KT P6SM SCT060 BKN200
     FM222000 25014G22KT P6SM BKN060 BKN200
     FM230300 27010KT P6SM SCT070 SCT200
      AMD LTD TO CLD VIS AND WIND TIL 221300=



000
FTUS45 KPSR 220520
TAFIWA
TAFIWA
TAF
KIWA 220520Z 2206/2306 22008KT P6SM FEW100
     FM220700 15008KT P6SM FEW070 SCT200
     FM221600 19010KT P6SM SCT060 BKN200
     FM222000 25014G22KT P6SM BKN060 BKN200
     FM230300 27010KT P6SM SCT070 SCT200
      AMD LTD TO CLD VIS AND WIND TIL 221300=



000
FTUS45 KPSR 220520
TAFIWA
TAF
KIWA 220520Z 2206/2306 22008KT P6SM FEW100
     FM220700 15008KT P6SM FEW070 SCT200
     FM221600 19010KT P6SM SCT060 BKN200
     FM222000 25014G22KT P6SM BKN060 BKN200
     FM230300 27010KT P6SM SCT070 SCT200
      AMD LTD TO CLD VIS AND WIND TIL 221300=



000
FTUS45 KPSR 220520
TAFIPL
TAF
KIPL 220520Z 2206/2306 26022G32KT P6SM FEW250
     FM220800 27018KT P6SM FEW080 SCT250
     FM221800 28020G30KT P6SM SCT080 SCT120 BKN250=



000
FTUS45 KPSR 220520
TAFBLH
TAF
KBLH 220520Z 2206/2306 24015KT P6SM SKC
     FM220800 23008KT P6SM FEW080 SCT200
     FM221500 21014KT P6SM SCT080 SCT120 BKN200
     FM222000 22016G22KT P6SM SCT080 SCT120 BKN200
     FM230300 23015KT P6SM FEW080 SCT120 BKN200=



000
FTUS45 KPSR 220520
TAFPHX
TAF
KPHX 220520Z 2206/2306 24009KT P6SM FEW100
     FM220900 14008KT P6SM FEW070 BKN200
     FM221700 21011KT P6SM SCT050 BKN200
     FM222100 24012G20KT P6SM BKN060 BKN200
     FM230300 27010KT P6SM SCT080 SCT200=



000
FTUS45 KPSR 220520
TAFBLH
TAF
KBLH 220520Z 2206/2306 24015KT P6SM SKC
     FM220800 23008KT P6SM FEW080 SCT200
     FM221500 21014KT P6SM SCT080 SCT120 BKN200
     FM222000 22016G22KT P6SM SCT080 SCT120 BKN200
     FM230300 23015KT P6SM FEW080 SCT120 BKN200=



000
FTUS45 KPSR 220520
TAFIWA
TAF
KIWA 220520Z 2206/2306 22008KT P6SM FEW100
     FM220700 15008KT P6SM FEW070 SCT200
     FM221600 19010KT P6SM SCT060 BKN200
     FM222000 25014G22KT P6SM BKN060 BKN200
     FM230300 27010KT P6SM SCT070 SCT200
      AMD LTD TO CLD VIS AND WIND TIL 221300=



000
FTUS45 KPSR 220520
TAFIWA
TAFIWA
TAF
KIWA 220520Z 2206/2306 22008KT P6SM FEW100
     FM220700 15008KT P6SM FEW070 SCT200
     FM221600 19010KT P6SM SCT060 BKN200
     FM222000 25014G22KT P6SM BKN060 BKN200
     FM230300 27010KT P6SM SCT070 SCT200
      AMD LTD TO CLD VIS AND WIND TIL 221300=



000
FTUS45 KPSR 220307 AAA
TAFBLH
TAF AMD
KBLH 220307Z 2203/2224 24015KT P6SM SKC
     FM220600 23008KT P6SM FEW080 SCT200
     FM221500 21014KT P6SM SCT080 SCT120 BKN200
      TEMPO 2220/2224 22015G22KT=



000
FTUS45 KPSR 220307 AAA
TAFBLH
TAF AMD
KBLH 220307Z 2203/2224 24015KT P6SM SKC
     FM220600 23008KT P6SM FEW080 SCT200
     FM221500 21014KT P6SM SCT080 SCT120 BKN200
      TEMPO 2220/2224 22015G22KT=



000
FTUS45 KPSR 220245 AAA
TAFPHX
TAF AMD
KPHX 220245Z 2203/2224 26014KT P6SM SKC
     FM220500 24009KT P6SM FEW120
     FM220900 14007KT P6SM FEW070 BKN200
     FM221600 20011KT P6SM SCT050 BKN200
     FM222100 24012G20KT P6SM BKN060 BKN200=



000
FTUS45 KPSR 212320
TAFBLH
TAF
KBLH 212320Z 2200/2224 21014G22KT P6SM FEW200
     FM220600 23008KT P6SM FEW080 SCT200
     FM221500 21014KT P6SM SCT080 SCT120 BKN200
      TEMPO 2220/2224 22015G22KT=



000
FTUS45 KPSR 212320
TAFIWA
TAFIWA
TAF
KIWA 212320Z 2200/2224 26012G20KT P6SM FEW120 BKN200
     FM220200 27008KT P6SM FEW120
     FM220700 15008KT P6SM FEW070 SCT200
     FM221600 19010KT P6SM SCT060 BKN200
     FM222000 25014G22KT P6SM BKN060 BKN200
      AMD LTD TO CLD VIS AND WIND 2203/2213=



000
FTUS45 KPSR 212320
TAFIWA
TAF
KIWA 212320Z 2200/2224 26012G20KT P6SM FEW120 BKN200
     FM220200 27008KT P6SM FEW120
     FM220700 15008KT P6SM FEW070 SCT200
     FM221600 19010KT P6SM SCT060 BKN200
     FM222000 25014G22KT P6SM BKN060 BKN200
      AMD LTD TO CLD VIS AND WIND 2203/2213=



000
FTUS45 KPSR 212320
TAFIWA
TAF
KIWA 212320Z 2200/2224 26012G20KT P6SM FEW120 BKN200
     FM220200 27008KT P6SM FEW120
     FM220700 15008KT P6SM FEW070 SCT200
     FM221600 19010KT P6SM SCT060 BKN200
     FM222000 25014G22KT P6SM BKN060 BKN200
      AMD LTD TO CLD VIS AND WIND 2203/2213=



000
FTUS45 KPSR 212320
TAFPHX
TAF
KPHX 212320Z 2200/2224 23012G20KT P6SM FEW120 SCT200 SCT250
     FM220400 24009KT P6SM FEW120
     FM220900 14007KT P6SM FEW070 BKN200
     FM221600 20011KT P6SM SCT050 BKN200
     FM222100 24012G20KT P6SM BKN060 BKN200=



000
FTUS45 KPSR 212320
TAFIPL
TAF
KIPL 212320Z 2200/2224 26022G32KT P6SM FEW250
     FM220700 27016KT P6SM FEW080 SCT250
     FM221800 28020G30KT P6SM SCT080 SCT120 BKN250=



000
FTUS45 KPSR 212320
TAFBLH
TAF
KBLH 212320Z 2200/2224 21014G22KT P6SM FEW200
     FM220600 23008KT P6SM FEW080 SCT200
     FM221500 21014KT P6SM SCT080 SCT120 BKN200
      TEMPO 2220/2224 22015G22KT=



000
FTUS45 KPSR 212320
TAFIPL
TAF
KIPL 212320Z 2200/2224 26022G32KT P6SM FEW250
     FM220700 27016KT P6SM FEW080 SCT250
     FM221800 28020G30KT P6SM SCT080 SCT120 BKN250=



000
FTUS45 KPSR 212320
TAFIWA
TAF
KIWA 212320Z 2200/2224 26012G20KT P6SM FEW120 BKN200
     FM220200 27008KT P6SM FEW120
     FM220700 15008KT P6SM FEW070 SCT200
     FM221600 19010KT P6SM SCT060 BKN200
     FM222000 25014G22KT P6SM BKN060 BKN200
      AMD LTD TO CLD VIS AND WIND 2203/2213=



000
FTUS45 KPSR 212320
TAFIWA
TAF
KIWA 212320Z 2200/2224 26012G20KT P6SM FEW120 BKN200
     FM220200 27008KT P6SM FEW120
     FM220700 15008KT P6SM FEW070 SCT200
     FM221600 19010KT P6SM SCT060 BKN200
     FM222000 25014G22KT P6SM BKN060 BKN200
      AMD LTD TO CLD VIS AND WIND 2203/2213=



000
FTUS45 KPSR 212320
TAFPHX
TAF
KPHX 212320Z 2200/2224 23012G20KT P6SM FEW120 SCT200 SCT250
     FM220400 24009KT P6SM FEW120
     FM220900 14007KT P6SM FEW070 BKN200
     FM221600 20011KT P6SM SCT050 BKN200
     FM222100 24012G20KT P6SM BKN060 BKN200=



000
FTUS45 KPSR 212320
TAFIWA
TAFIWA
TAF
KIWA 212320Z 2200/2224 26012G20KT P6SM FEW120 BKN200
     FM220200 27008KT P6SM FEW120
     FM220700 15008KT P6SM FEW070 SCT200
     FM221600 19010KT P6SM SCT060 BKN200
     FM222000 25014G22KT P6SM BKN060 BKN200
      AMD LTD TO CLD VIS AND WIND 2203/2213=



000
FTUS45 KPSR 212048 AAA
TAFPHX
TAF AMD
KPHX 212048Z 2121/2218 18010G21KT P6SM FEW120 BKN200
     FM212300 23012G20KT P6SM FEW120 BKN250
     FM220300 24009KT P6SM FEW120
     FM220900 14007KT P6SM FEW070 BKN200
     FM221600 20010KT P6SM SCT050 BKN250=



000
FTUS45 KPSR 212048 AAA
TAFPHX
TAF AMD
KPHX 212048Z 2121/2218 18010G21KT P6SM FEW120 BKN200
     FM212300 23012G20KT P6SM FEW120 BKN250
     FM220300 24009KT P6SM FEW120
     FM220900 14007KT P6SM FEW070 BKN200
     FM221600 20010KT P6SM SCT050 BKN250=



000
FTUS45 KPSR 211958 AAA
TAFIWA
TAF AMD
KIWA 211958Z 2120/2218 24010G20KT P6SM FEW120 BKN200
     FM220200 25008KT P6SM FEW120
     FM220700 15008KT P6SM FEW070 BKN200=



000
FTUS45 KPSR 211958
TAFIWA
TAFIWA
TAF AMD
KIWA 211958Z 2120/2218 24010G20KT P6SM FEW120 BKN200
     FM220200 25008KT P6SM FEW120
     FM220700 15008KT P6SM FEW070 BKN200=



000
FTUS45 KPSR 211958 AAA
TAFIWA
TAF AMD
KIWA 211958Z 2120/2218 24010G20KT P6SM FEW120 BKN200
     FM220200 25008KT P6SM FEW120
     FM220700 15008KT P6SM FEW070 BKN200=



000
FTUS45 KPSR 211958
TAFIWA
TAFIWA
TAF AMD
KIWA 211958Z 2120/2218 24010G20KT P6SM FEW120 BKN200
     FM220200 25008KT P6SM FEW120
     FM220700 15008KT P6SM FEW070 BKN200=



000
FTUS45 KPSR 211958 AAA
TAFIWA
TAF AMD
KIWA 211958Z 2120/2218 24010G20KT P6SM FEW120 BKN200
     FM220200 25008KT P6SM FEW120
     FM220700 15008KT P6SM FEW070 BKN200=



000
FTUS45 KPSR 211958 AAA
TAFIWA
TAF AMD
KIWA 211958Z 2120/2218 24010G20KT P6SM FEW120 BKN200
     FM220200 25008KT P6SM FEW120
     FM220700 15008KT P6SM FEW070 BKN200=



000
FTUS45 KPSR 211720
TAFBLH
TAF
KBLH 211720Z 2118/2218 21010G21KT P6SM FEW080 BKN200
     FM220600 23008KT P6SM BKN200=



000
FTUS45 KPSR 211720
TAFIWA
TAF
KIWA 211720Z 2118/2218 18010G18KT P6SM FEW100 BKN200
     FM212100 24011G20KT P6SM FEW120 BKN250
     FM220200 25008KT P6SM FEW120
     FM220700 15008KT P6SM FEW070 BKN200=



000
FTUS45 KPSR 211720
TAFIWA
TAF
KIWA 211720Z 2118/2218 18010G18KT P6SM FEW100 BKN200
     FM212100 24011G20KT P6SM FEW120 BKN250
     FM220200 25008KT P6SM FEW120
     FM220700 15008KT P6SM FEW070 BKN200=



000
FTUS45 KPSR 211720
TAFIPL
TAF
KIPL 211720Z 2118/2218 27013G23KT P6SM FEW070 BKN200
     FM212200 26020G32KT P6SM SCT250
     FM220600 27016KT P6SM SCT250=



000
FTUS45 KPSR 211720
TAFPHX
TAF
KPHX 211720Z 2118/2218 18010G18KT P6SM FEW100 BKN200
     FM212300 24012G20KT P6SM SCT120 SCT250
     FM220300 24009KT P6SM FEW120
     FM220900 14007KT P6SM FEW070 BKN200
     FM221600 20010KT P6SM SCT050 BKN250=



000
FTUS45 KPSR 211720
TAFPHX
TAF
KPHX 211720Z 2118/2218 18010G18KT P6SM FEW100 BKN200
     FM212300 24012G20KT P6SM SCT120 SCT250
     FM220300 24009KT P6SM FEW120
     FM220900 14007KT P6SM FEW070 BKN200
     FM221600 20010KT P6SM SCT050 BKN250=



000
FTUS45 KPSR 211720
TAFIWA
TAF
KIWA 211720Z 2118/2218 18010G18KT P6SM FEW100 BKN200
     FM212100 24011G20KT P6SM FEW120 BKN250
     FM220200 25008KT P6SM FEW120
     FM220700 15008KT P6SM FEW070 BKN200=



000
FTUS45 KPSR 211720
TAFBLH
TAF
KBLH 211720Z 2118/2218 21010G21KT P6SM FEW080 BKN200
     FM220600 23008KT P6SM BKN200=



000
FTUS45 KPSR 211720
TAFIWA
TAFIWA
TAF
KIWA 211720Z 2118/2218 18010G18KT P6SM FEW100 BKN200
     FM212100 24011G20KT P6SM FEW120 BKN250
     FM220200 25008KT P6SM FEW120
     FM220700 15008KT P6SM FEW070 BKN200=



000
FTUS45 KPSR 211720
TAFIWA
TAF
KIWA 211720Z 2118/2218 18010G18KT P6SM FEW100 BKN200
     FM212100 24011G20KT P6SM FEW120 BKN250
     FM220200 25008KT P6SM FEW120
     FM220700 15008KT P6SM FEW070 BKN200=



000
FTUS45 KPSR 211720
TAFIPL
TAF
KIPL 211720Z 2118/2218 27013G23KT P6SM FEW070 BKN200
     FM212200 26020G32KT P6SM SCT250
     FM220600 27016KT P6SM SCT250=



000
FTUS45 KPSR 211452 AAA
TAFPHX
TAF AMD
KPHX 211452Z 2115/2212 10007KT P6SM FEW150 BKN200
     FM211800 18010G19KT P6SM FEW100 BKN200
     FM212300 24012G20KT P6SM SCT120 SCT250
     FM220300 24009KT P6SM FEW120
     FM220900 14007KT P6SM BKN200=



000
FTUS45 KPSR 211120
TAFIPL
TAF
KIPL 211120Z 2112/2212 27012KT P6SM BKN250
     FM212200 27020G32KT P6SM SKC
     FM220600 27018KT P6SM SCT250=



000
FTUS45 KPSR 211120
TAFBLH
TAF
KBLH 211120Z 2112/2212 VRB05KT P6SM BKN250
     FM211800 19007KT P6SM FEW080 SCT250
     FM212000 21014G24KT P6SM FEW080
     FM220600 21009KT P6SM SCT250=



000
FTUS45 KPSR 211120
TAFPHX
TAF
KPHX 211120Z 2112/2212 11008KT P6SM BKN250
     FM211800 18012G20KT P6SM FEW080 BKN250
     FM212200 25014G22KT P6SM FEW080 SCT250
     FM220200 26010KT P6SM SKC
     FM220900 16005KT P6SM SCT250=



000
FTUS45 KPSR 211120
TAFIWA
TAF
KIWA 211120Z 2112/2212 12007KT P6SM BKN250
     FM211700 18012G20KT P6SM FEW080 BKN250
     FM212100 24013G20KT P6SM FEW080 BKN250
     FM220200 26007KT P6SM SKC
     FM220700 13007KT P6SM SCT250
      AMD LTD TO CLD VIS AND WIND TIL 211300=



000
FTUS45 KPSR 211120
TAFIWA
TAF
KIWA 211120Z 2112/2212 12007KT P6SM BKN250
     FM211700 18012G20KT P6SM FEW080 BKN250
     FM212100 24013G20KT P6SM FEW080 BKN250
     FM220200 26007KT P6SM SKC
     FM220700 13007KT P6SM SCT250
      AMD LTD TO CLD VIS AND WIND TIL 211300=



000
FTUS45 KPSR 211120
TAFPHX
TAF
KPHX 211120Z 2112/2212 11008KT P6SM BKN250
     FM211800 18012G20KT P6SM FEW080 BKN250
     FM212200 25014G22KT P6SM FEW080 SCT250
     FM220200 26010KT P6SM SKC
     FM220900 16005KT P6SM SCT250=



000
FTUS45 KPSR 211120
TAFBLH
TAF
KBLH 211120Z 2112/2212 VRB05KT P6SM BKN250
     FM211800 19007KT P6SM FEW080 SCT250
     FM212000 21014G24KT P6SM FEW080
     FM220600 21009KT P6SM SCT250=



000
FTUS45 KPSR 211120
TAFIPL
TAF
KIPL 211120Z 2112/2212 27012KT P6SM BKN250
     FM212200 27020G32KT P6SM SKC
     FM220600 27018KT P6SM SCT250=



000
FTUS45 KPSR 211120
TAFIWA
TAFIWA
TAF
KIWA 211120Z 2112/2212 12007KT P6SM BKN250
     FM211700 18012G20KT P6SM FEW080 BKN250
     FM212100 24013G20KT P6SM FEW080 BKN250
     FM220200 26007KT P6SM SKC
     FM220700 13007KT P6SM SCT250
      AMD LTD TO CLD VIS AND WIND TIL 211300=



000
FTUS45 KPSR 211120
TAFIWA
TAF
KIWA 211120Z 2112/2212 12007KT P6SM BKN250
     FM211700 18012G20KT P6SM FEW080 BKN250
     FM212100 24013G20KT P6SM FEW080 BKN250
     FM220200 26007KT P6SM SKC
     FM220700 13007KT P6SM SCT250
      AMD LTD TO CLD VIS AND WIND TIL 211300=



000
FTUS45 KPSR 211120
TAFIWA
TAF
KIWA 211120Z 2112/2212 12007KT P6SM BKN250
     FM211700 18012G20KT P6SM FEW080 BKN250
     FM212100 24013G20KT P6SM FEW080 BKN250
     FM220200 26007KT P6SM SKC
     FM220700 13007KT P6SM SCT250
      AMD LTD TO CLD VIS AND WIND TIL 211300=



000
FTUS45 KPSR 211120
TAFIWA
TAFIWA
TAF
KIWA 211120Z 2112/2212 12007KT P6SM BKN250
     FM211700 18012G20KT P6SM FEW080 BKN250
     FM212100 24013G20KT P6SM FEW080 BKN250
     FM220200 26007KT P6SM SKC
     FM220700 13007KT P6SM SCT250
      AMD LTD TO CLD VIS AND WIND TIL 211300=



000
FTUS45 KPSR 210811 AAA
TAFPHX
TAF AMD
KPHX 210811Z 2108/2206 VRB03KT P6SM BKN200
     FM211100 11007KT P6SM BKN250
     FM211900 18012G18KT P6SM SCT080 BKN250
     FM220000 25014G22KT P6SM SCT080 BKN250=



000
FTUS45 KPSR 210520
TAFIWA
TAFIWA
TAF
KIWA 210520Z 2106/2206 26006KT P6SM BKN200
     FM210800 13008KT P6SM BKN200
     FM211800 18012KT P6SM SCT080 BKN250
     FM212100 23014G20KT P6SM SCT080 BKN250
     FM220300 27009KT P6SM FEW080 BKN250
      AMD LTD TO CLD VIS AND WIND TIL 211300=



000
FTUS45 KPSR 210520
TAFIWA
TAF
KIWA 210520Z 2106/2206 26006KT P6SM BKN200
     FM210800 13008KT P6SM BKN200
     FM211800 18012KT P6SM SCT080 BKN250
     FM212100 23014G20KT P6SM SCT080 BKN250
     FM220300 27009KT P6SM FEW080 BKN250
      AMD LTD TO CLD VIS AND WIND TIL 211300=



000
FTUS45 KPSR 210520
TAFIWA
TAF
KIWA 210520Z 2106/2206 26006KT P6SM BKN200
     FM210800 13008KT P6SM BKN200
     FM211800 18012KT P6SM SCT080 BKN250
     FM212100 23014G20KT P6SM SCT080 BKN250
     FM220300 27009KT P6SM FEW080 BKN250
      AMD LTD TO CLD VIS AND WIND TIL 211300=



000
FTUS45 KPSR 210520
TAFBLH
TAF
KBLH 210520Z 2106/2206 20011KT P6SM BKN200
     FM210800 VRB05KT P6SM SCT150 BKN200
     FM211600 17008KT P6SM BKN150 BKN200
     FM212000 21016G24KT P6SM SCT090 SCT140 BKN200=



000
FTUS45 KPSR 210520
TAFIWA
TAF
KIWA 210520Z 2106/2206 26006KT P6SM BKN200
     FM210800 13008KT P6SM BKN200
     FM211800 18012KT P6SM SCT080 BKN250
     FM212100 23014G20KT P6SM SCT080 BKN250
     FM220300 27009KT P6SM FEW080 BKN250
      AMD LTD TO CLD VIS AND WIND TIL 211300=



000
FTUS45 KPSR 210520
TAFPHX
TAF
KPHX 210520Z 2106/2206 26007KT P6SM BKN200
     FM211100 11007KT P6SM BKN250
     FM211900 18012G18KT P6SM SCT080 BKN250
     FM220000 25014G22KT P6SM SCT080 BKN250=



000
FTUS45 KPSR 210520
TAFIPL
TAF
KIPL 210520Z 2106/2206 26015G24KT P6SM SCT250
     FM210700 27013KT P6SM OVC200
     FM212200 27017G26KT P6SM SCT090 BKN200=



000
FTUS45 KPSR 210520
TAFPHX
TAF
KPHX 210520Z 2106/2206 26007KT P6SM BKN200
     FM211100 11007KT P6SM BKN250
     FM211900 18012G18KT P6SM SCT080 BKN250
     FM220000 25014G22KT P6SM SCT080 BKN250=



000
FTUS45 KPSR 210520
TAFBLH
TAF
KBLH 210520Z 2106/2206 20011KT P6SM BKN200
     FM210800 VRB05KT P6SM SCT150 BKN200
     FM211600 17008KT P6SM BKN150 BKN200
     FM212000 21016G24KT P6SM SCT090 SCT140 BKN200=



000
FTUS45 KPSR 210520
TAFIPL
TAF
KIPL 210520Z 2106/2206 26015G24KT P6SM SCT250
     FM210700 27013KT P6SM OVC200
     FM212200 27017G26KT P6SM SCT090 BKN200=



000
FTUS45 KPSR 210520
TAFIWA
TAF
KIWA 210520Z 2106/2206 26006KT P6SM BKN200
     FM210800 13008KT P6SM BKN200
     FM211800 18012KT P6SM SCT080 BKN250
     FM212100 23014G20KT P6SM SCT080 BKN250
     FM220300 27009KT P6SM FEW080 BKN250
      AMD LTD TO CLD VIS AND WIND TIL 211300=



000
FTUS45 KPSR 210520
TAFIWA
TAFIWA
TAF
KIWA 210520Z 2106/2206 26006KT P6SM BKN200
     FM210800 13008KT P6SM BKN200
     FM211800 18012KT P6SM SCT080 BKN250
     FM212100 23014G20KT P6SM SCT080 BKN250
     FM220300 27009KT P6SM FEW080 BKN250
      AMD LTD TO CLD VIS AND WIND TIL 211300=



000
FTUS45 KPSR 210401 AAA
TAFBLH
TAF AMD
KBLH 210401Z 2104/2124 20011KT P6SM BKN200
     FM210800 VRB05KT P6SM SCT150 BKN200
     FM211600 17008KT P6SM BKN150 BKN200
     FM212000 20014G22KT P6SM SCT090 SCT140 BKN200=



000
FTUS45 KPSR 210401 AAA
TAFBLH
TAF AMD
KBLH 210401Z 2104/2124 20011KT P6SM BKN200
     FM210800 VRB05KT P6SM SCT150 BKN200
     FM211600 17008KT P6SM BKN150 BKN200
     FM212000 20014G22KT P6SM SCT090 SCT140 BKN200=



000
FTUS45 KPSR 210253 AAA
TAFPHX
TAF AMD
KPHX 210253Z 2103/2124 27012KT P6SM OVC200
     FM210500 26007KT P6SM OVC200
     FM211000 11007KT P6SM BKN250
     FM211900 18011G16KT P6SM SCT080 BKN250=



000
FTUS45 KPSR 202320
TAFIWA
TAFIWA
TAF
KIWA 202320Z 2100/2124 28011KT P6SM OVC250
     FM210600 13006KT P6SM BKN250
     FM211800 18012KT P6SM SCT080 BKN250
     FM212100 23014G20KT P6SM SCT080 BKN250
      AMD LTD TO CLD VIS AND WIND 2103/2113=



000
FTUS45 KPSR 202320
TAFIWA
TAF
KIWA 202320Z 2100/2124 28011KT P6SM OVC250
     FM210600 13006KT P6SM BKN250
     FM211800 18012KT P6SM SCT080 BKN250
     FM212100 23014G20KT P6SM SCT080 BKN250
      AMD LTD TO CLD VIS AND WIND 2103/2113=



000
FTUS45 KPSR 202320
TAFPHX
TAF
KPHX 202320Z 2100/2124 18012KT P6SM BKN200
     FM210100 24012G18KT P6SM OVC200
     FM210500 26007KT P6SM OVC200
     FM211000 11007KT P6SM BKN250
     FM211900 18011G16KT P6SM SCT080 BKN250=



000
FTUS45 KPSR 202320
TAFBLH
TAF
KBLH 202320Z 2100/2124 19012G19KT P6SM FEW250
     FM210200 23012KT P6SM SCT200
     FM210800 VRB05KT P6SM SCT150 BKN200
     FM211600 17008KT P6SM BKN150 BKN200
     FM212000 20014G22KT P6SM SCT090 SCT140 BKN200=



000
FTUS45 KPSR 202320
TAFIWA
TAF
KIWA 202320Z 2100/2124 28011KT P6SM OVC250
     FM210600 13006KT P6SM BKN250
     FM211800 18012KT P6SM SCT080 BKN250
     FM212100 23014G20KT P6SM SCT080 BKN250
      AMD LTD TO CLD VIS AND WIND 2103/2113=



000
FTUS45 KPSR 202320
TAFIWA
TAF
KIWA 202320Z 2100/2124 28011KT P6SM OVC250
     FM210600 13006KT P6SM BKN250
     FM211800 18012KT P6SM SCT080 BKN250
     FM212100 23014G20KT P6SM SCT080 BKN250
      AMD LTD TO CLD VIS AND WIND 2103/2113=



000
FTUS45 KPSR 202320
TAFBLH
TAF
KBLH 202320Z 2100/2124 19012G19KT P6SM FEW250
     FM210200 23012KT P6SM SCT200
     FM210800 VRB05KT P6SM SCT150 BKN200
     FM211600 17008KT P6SM BKN150 BKN200
     FM212000 20014G22KT P6SM SCT090 SCT140 BKN200=



000
FTUS45 KPSR 202320
TAFIPL
TAF
KIPL 202320Z 2100/2124 25011KT P6SM FEW250
     FM210200 26015G26KT P6SM SCT250
     FM210700 27013KT P6SM OVC200
     FM212100 27016G24KT P6SM SCT090 BKN200=



000
FTUS45 KPSR 202320
TAFIWA
TAFIWA
TAF
KIWA 202320Z 2100/2124 28011KT P6SM OVC250
     FM210600 13006KT P6SM BKN250
     FM211800 18012KT P6SM SCT080 BKN250
     FM212100 23014G20KT P6SM SCT080 BKN250
      AMD LTD TO CLD VIS AND WIND 2103/2113=



000
FTUS45 KPSR 202320
TAFPHX
TAF
KPHX 202320Z 2100/2124 18012KT P6SM BKN200
     FM210100 24012G18KT P6SM OVC200
     FM210500 26007KT P6SM OVC200
     FM211000 11007KT P6SM BKN250
     FM211900 18011G16KT P6SM SCT080 BKN250=



000
FTUS45 KPSR 202320
TAFIPL
TAF
KIPL 202320Z 2100/2124 25011KT P6SM FEW250
     FM210200 26015G26KT P6SM SCT250
     FM210700 27013KT P6SM OVC200
     FM212100 27016G24KT P6SM SCT090 BKN200=



000
FTUS45 KPSR 202100 AAA
TAFIPL
TAF AMD
KIPL 202100Z 2021/2118 25011KT P6SM SCT250
     FM210200 26015G26KT P6SM SCT250
     FM210700 27013KT P6SM OVC200=



000
FTUS45 KPSR 202050 AAA
TAFPHX
TAF AMD
KPHX 202050Z 2021/2118 20010KT P6SM BKN200
     FM210000 24009G18KT P6SM OVC200
     FM210400 26007KT P6SM OVC200
     FM210900 10007KT P6SM BKN250=



000
FTUS45 KPSR 201720
TAFIWA
TAF
KIWA 201720Z 2018/2118 15007KT P6SM BKN250
     FM202100 24011KT P6SM OVC250
     FM210600 13006KT P6SM BKN250=



000
FTUS45 KPSR 201720
TAFIPL
TAF
KIPL 201720Z 2018/2118 VRB04KT P6SM BKN250
     FM202300 25008KT P6SM BKN250
     FM210200 26015G26KT P6SM BKN200
     FM210700 27013KT P6SM OVC200=



000
FTUS45 KPSR 201720
TAFIWA
TAFIWA
TAF
KIWA 201720Z 2018/2118 15007KT P6SM BKN250
     FM202100 24011KT P6SM OVC250
     FM210600 13006KT P6SM BKN250=



000
FTUS45 KPSR 201720
TAFPHX
TAF
KPHX 201720Z 2018/2118 14008KT P6SM BKN250
     FM202100 20009KT P6SM BKN250
     FM210000 24009G18KT P6SM OVC200
     FM210400 26007KT P6SM OVC200
     FM210900 10007KT P6SM BKN250=



000
FTUS45 KPSR 201720
TAFIWA
TAF
KIWA 201720Z 2018/2118 15007KT P6SM BKN250
     FM202100 24011KT P6SM OVC250
     FM210600 13006KT P6SM BKN250=



000
FTUS45 KPSR 201720
TAFIWA
TAFIWA
TAF
KIWA 201720Z 2018/2118 15007KT P6SM BKN250
     FM202100 24011KT P6SM OVC250
     FM210600 13006KT P6SM BKN250=



000
FTUS45 KPSR 201720
TAFIPL
TAF
KIPL 201720Z 2018/2118 VRB04KT P6SM BKN250
     FM202300 25008KT P6SM BKN250
     FM210200 26015G26KT P6SM BKN200
     FM210700 27013KT P6SM OVC200=



000
FTUS45 KPSR 201720
TAFIWA
TAF
KIWA 201720Z 2018/2118 15007KT P6SM BKN250
     FM202100 24011KT P6SM OVC250
     FM210600 13006KT P6SM BKN250=



000
FTUS45 KPSR 201720
TAFIWA
TAF
KIWA 201720Z 2018/2118 15007KT P6SM BKN250
     FM202100 24011KT P6SM OVC250
     FM210600 13006KT P6SM BKN250=



000
FTUS45 KPSR 201720
TAFBLH
TAF
KBLH 201720Z 2018/2118 17012KT P6SM BKN250
     FM202200 19012G19KT P6SM BKN250
     FM210200 23012KT P6SM BKN200
     FM211100 VRB05KT P6SM BKN150
     FM211600 17008KT P6SM BKN150=



000
FTUS45 KPSR 201720
TAFPHX
TAF
KPHX 201720Z 2018/2118 14008KT P6SM BKN250
     FM202100 20009KT P6SM BKN250
     FM210000 24009G18KT P6SM OVC200
     FM210400 26007KT P6SM OVC200
     FM210900 10007KT P6SM BKN250=



000
FTUS45 KPSR 201720
TAFBLH
TAF
KBLH 201720Z 2018/2118 17012KT P6SM BKN250
     FM202200 19012G19KT P6SM BKN250
     FM210200 23012KT P6SM BKN200
     FM211100 VRB05KT P6SM BKN150
     FM211600 17008KT P6SM BKN150=



000
FTUS45 KPSR 201459
TAFIWA
TAFIWA
TAF AMD
KIWA 201459Z 2015/2112 14007KT P6SM SCT250
     FM202100 23009G18KT P6SM OVC250
     FM210200 24006KT P6SM OVC200
     FM210500 14006KT P6SM BKN250=



000
FTUS45 KPSR 201459 AAA
TAFIWA
TAF AMD
KIWA 201459Z 2015/2112 14007KT P6SM SCT250
     FM202100 23009G18KT P6SM OVC250
     FM210200 24006KT P6SM OVC200
     FM210500 14006KT P6SM BKN250=



000
FTUS45 KPSR 201459 AAA
TAFIWA
TAF AMD
KIWA 201459Z 2015/2112 14007KT P6SM SCT250
     FM202100 23009G18KT P6SM OVC250
     FM210200 24006KT P6SM OVC200
     FM210500 14006KT P6SM BKN250=



000
FTUS45 KPSR 201458 AAA
TAFPHX
TAF AMD
KPHX 201458Z 2015/2112 12006KT P6SM SCT250
     FM202000 21009KT P6SM BKN250
     FM210000 24009G18KT P6SM OVC200
     FM210400 26007KT P6SM OVC200
     FM210900 10007KT P6SM BKN250=



000
FTUS45 KPSR 201126
TAFPHX
TAF
KPHX 201126Z 2012/2112 10005KT P6SM SCT250
     FM201700 15008KT P6SM BKN250
     FM202100 23010G20KT P6SM OVC250
     FM210200 25009KT P6SM OVC200
     FM210600 VRB05KT P6SM BKN250=



000
FTUS45 KPSR 201126
TAFPHX
TAF
KPHX 201126Z 2012/2112 10005KT P6SM SCT250
     FM201700 15008KT P6SM BKN250
     FM202100 23010G20KT P6SM OVC250
     FM210200 25009KT P6SM OVC200
     FM210600 VRB05KT P6SM BKN250=



000
FTUS45 KPSR 201126
TAFIWA
TAF
KIWA 201126Z 2012/2112 12004KT P6SM FEW250
     FM201700 18008KT P6SM BKN250
     FM202100 25010G18KT P6SM OVC200
     FM210200 21006KT P6SM BKN250
     FM210500 14006KT P6SM BKN250
      AMD LTD TO CLD VIS AND WIND TIL 201300=



000
FTUS45 KPSR 201126
TAFIPL
TAF
KIPL 201126Z 2012/2112 VRB06KT P6SM BKN250
     FM201800 12008KT P6SM BKN250
     FM210200 26014G24KT P6SM BKN250
     FM210600 27012KT P6SM BKN180=



000
FTUS45 KPSR 201126
TAFBLH
TAF
KBLH 201126Z 2012/2112 17009KT P6SM BKN250
     FM202000 19012G19KT P6SM BKN250
     FM210200 22012KT P6SM BKN200=



000
FTUS45 KPSR 201126
TAFIWA
TAF
KIWA 201126Z 2012/2112 12004KT P6SM FEW250
     FM201700 18008KT P6SM BKN250
     FM202100 25010G18KT P6SM OVC200
     FM210200 21006KT P6SM BKN250
     FM210500 14006KT P6SM BKN250
      AMD LTD TO CLD VIS AND WIND TIL 201300=



000
FTUS45 KPSR 201126
TAFIPL
TAF
KIPL 201126Z 2012/2112 VRB06KT P6SM BKN250
     FM201800 12008KT P6SM BKN250
     FM210200 26014G24KT P6SM BKN250
     FM210600 27012KT P6SM BKN180=



000
FTUS45 KPSR 201126
TAFBLH
TAF
KBLH 201126Z 2012/2112 17009KT P6SM BKN250
     FM202000 19012G19KT P6SM BKN250
     FM210200 22012KT P6SM BKN200=



000
FTUS45 KPSR 201126
TAFIWA
TAF
KIWA 201126Z 2012/2112 12004KT P6SM FEW250
     FM201700 18008KT P6SM BKN250
     FM202100 25010G18KT P6SM OVC200
     FM210200 21006KT P6SM BKN250
     FM210500 14006KT P6SM BKN250
      AMD LTD TO CLD VIS AND WIND TIL 201300=



000
FTUS45 KPSR 200908 AAA
TAFPHX
TAF AMD
KPHX 200908Z 2009/2106 12005KT P6SM SCT250
     FM202100 23010KT P6SM SCT250
      TEMPO 2023/2103 25012G20KT=



000
FTUS45 KPSR 200520
TAFPHX
TAF
KPHX 200520Z 2006/2106 VRB05KT P6SM SKC
     FM200900 12005KT P6SM SCT250
     FM202100 23010KT P6SM SCT250
      TEMPO 2023/2103 25012G20KT=



000
FTUS45 KPSR 200520
TAFIWA
TAF
KIWA 200520Z 2006/2106 14004KT P6SM FEW250
     FM201700 18007KT P6SM SCT250
     FM202100 25010KT P6SM SCT250
      AMD LTD TO CLD VIS AND WIND TIL 201300=



000
FTUS45 KPSR 200520
TAFIPL
TAF
KIPL 200520Z 2006/2106 27012KT P6SM FEW250
     FM201200 VRB06KT P6SM BKN250
     FM201900 12008KT P6SM SCT250
     FM210300 26014KT P6SM SCT250=



000
FTUS45 KPSR 200520
TAFBLH
TAF
KBLH 200520Z 2006/2106 20010KT P6SM FEW250
     FM200900 VRB05KT P6SM BKN250
     FM201700 17010KT P6SM BKN250
     FM202000 19012G18KT P6SM SCT250
     FM210200 23012KT P6SM SCT250=



000
FTUS45 KPSR 200520
TAFIWA
TAF
KIWA 200520Z 2006/2106 14004KT P6SM FEW250
     FM201700 18007KT P6SM SCT250
     FM202100 25010KT P6SM SCT250
      AMD LTD TO CLD VIS AND WIND TIL 201300=



000
FTUS45 KPSR 200247 AAA
TAFPHX
TAF AMD
KPHX 200247Z 2003/2024 27010KT P6SM SKC
      TEMPO 2003/2004 27012G18KT
     FM200500 VRB05KT P6SM SKC
     FM200900 12005KT P6SM SCT250
     FM202100 23010KT P6SM SCT250=



000
FTUS45 KPSR 200247 AAA
TAFPHX
TAF AMD
KPHX 200247Z 2003/2024 27010KT P6SM SKC
      TEMPO 2003/2004 27012G18KT
     FM200500 VRB05KT P6SM SKC
     FM200900 12005KT P6SM SCT250
     FM202100 23010KT P6SM SCT250=



    US Dept of Commerce
    National Oceanic and Atmospheric Administration
    National Weather Service
    1325 East West Highway
    Silver Spring, MD 20910
    Page Author: NWS Internet Services Team
Disclaimer
Information Quality
Credits
Glossary
Privacy Policy
Freedom of Information Act (FOIA)
About Us
Career Opportunities